sensor_id;sensor_type;location;lat;lon;timestamp;pressure;altitude;pressure_sealevel;temperature;humidity
40730;BME280;26418;50.070;8.436;2023-05-24T00:01:06;100507.59;;;11.71;60.65
40730;BME280;26418;50.070;8.436;2023-05-24T00:03:33;100507.09;;;11.69;60.40
40730;BME280;26418;50.070;8.436;2023-05-24T00:06:02;100502.06;;;11.62;60.42
40730;BME280;26418;50.070;8.436;2023-05-24T00:08:37;100506.34;;;11.63;60.25
40730;BME280;26418;50.070;8.436;2023-05-24T00:11:21;100509.16;;;11.58;60.35
40730;BME280;26418;50.070;8.436;2023-05-24T00:13:48;100508.09;;;11.54;60.59
40730;BME280;26418;50.070;8.436;2023-05-24T00:16:29;100504.16;;;11.46;60.46
40730;BME280;26418;50.070;8.436;2023-05-24T00:22:04;100504.47;;;11.45;60.85
40730;BME280;26418;50.070;8.436;2023-05-24T00:24:29;100496.91;;;11.42;61.06
40730;BME280;26418;50.070;8.436;2023-05-24T00:27:14;100504.50;;;11.40;61.28
40730;BME280;26418;50.070;8.436;2023-05-24T00:29:40;100500.50;;;11.37;61.25
40730;BME280;26418;50.070;8.436;2023-05-24T00:32:05;100504.91;;;11.33;61.08
40730;BME280;26418;50.070;8.436;2023-05-24T00:34:31;100502.41;;;11.37;60.91
40730;BME280;26418;50.070;8.436;2023-05-24T00:37:24;100511.09;;;11.33;61.16
40730;BME280;26418;50.070;8.436;2023-05-24T00:40:18;100506.00;;;11.32;61.18
40730;BME280;26418;50.070;8.436;2023-05-24T00:43:17;100504.16;;;11.27;61.46
40730;BME280;26418;50.070;8.436;2023-05-24T00:46:21;100489.22;;;11.06;61.92
40730;BME280;26418;50.070;8.436;2023-05-24T00:49:07;100511.31;;;11.18;62.12
40730;BME280;26418;50.070;8.436;2023-05-24T00:51:42;100507.84;;;11.12;62.13
40730;BME280;26418;50.070;8.436;2023-05-24T00:54:23;100500.59;;;11.08;62.74
40730;BME280;26418;50.070;8.436;2023-05-24T01:00:04;100516.75;;;11.13;62.14
40730;BME280;26418;50.070;8.436;2023-05-24T01:02:48;100525.50;;;11.05;61.84
40730;BME280;26418;50.070;8.436;2023-05-24T01:05:15;100517.25;;;10.96;62.46
40730;BME280;26418;50.070;8.436;2023-05-24T01:08:03;100519.38;;;10.99;62.13
40730;BME280;26418;50.070;8.436;2023-05-24T01:10:44;100512.47;;;10.88;62.53
40730;BME280;26418;50.070;8.436;2023-05-24T01:15:58;100522.72;;;10.91;62.26
40730;BME280;26418;50.070;8.436;2023-05-24T01:18:39;100526.16;;;10.96;61.79
40730;BME280;26418;50.070;8.436;2023-05-24T01:24:17;100514.00;;;10.94;62.30
40730;BME280;26418;50.070;8.436;2023-05-24T01:29:37;100517.13;;;10.82;62.41
40730;BME280;26418;50.070;8.436;2023-05-24T01:32:03;100502.38;;;10.69;62.37
40730;BME280;26418;50.070;8.436;2023-05-24T01:34:30;100510.78;;;10.67;62.72
40730;BME280;26418;50.070;8.436;2023-05-24T01:36:55;100505.41;;;10.62;62.88
40730;BME280;26418;50.070;8.436;2023-05-24T01:39:24;100510.53;;;10.64;62.97
40730;BME280;26418;50.070;8.436;2023-05-24T01:50:31;100509.03;;;10.52;63.76
40730;BME280;26418;50.070;8.436;2023-05-24T01:53:06;100495.81;;;10.46;63.53
40730;BME280;26418;50.070;8.436;2023-05-24T01:55:51;100509.63;;;10.44;63.91
40730;BME280;26418;50.070;8.436;2023-05-24T01:58:27;100504.75;;;10.46;64.30
40730;BME280;26418;50.070;8.436;2023-05-24T02:01:00;100495.78;;;10.51;63.66
40730;BME280;26418;50.070;8.436;2023-05-24T02:03:26;100492.56;;;10.49;63.77
40730;BME280;26418;50.070;8.436;2023-05-24T02:05:55;100490.16;;;10.47;63.75
40730;BME280;26418;50.070;8.436;2023-05-24T02:08:20;100500.97;;;10.47;63.88
40730;BME280;26418;50.070;8.436;2023-05-24T02:10:46;100494.72;;;10.52;63.13
40730;BME280;26418;50.070;8.436;2023-05-24T02:13:11;100482.94;;;10.32;63.40
40730;BME280;26418;50.070;8.436;2023-05-24T02:15:37;100489.16;;;10.38;64.14
40730;BME280;26418;50.070;8.436;2023-05-24T02:18:08;100504.53;;;10.43;64.08
40730;BME280;26418;50.070;8.436;2023-05-24T02:20:35;100507.00;;;10.34;64.17
40730;BME280;26418;50.070;8.436;2023-05-24T02:23:02;100506.75;;;10.30;64.58
40730;BME280;26418;50.070;8.436;2023-05-24T02:25:28;100504.81;;;10.36;64.19
40730;BME280;26418;50.070;8.436;2023-05-24T02:27:59;100488.41;;;10.27;64.22
40730;BME280;26418;50.070;8.436;2023-05-24T02:30:33;100494.38;;;10.24;63.94
40730;BME280;26418;50.070;8.436;2023-05-24T02:32:59;100500.94;;;10.18;64.31
40730;BME280;26418;50.070;8.436;2023-05-24T02:35:27;100517.63;;;10.25;64.46
40730;BME280;26418;50.070;8.436;2023-05-24T02:37:56;100499.31;;;10.17;64.33
40730;BME280;26418;50.070;8.436;2023-05-24T02:40:22;100493.09;;;10.16;64.38
40730;BME280;26418;50.070;8.436;2023-05-24T02:42:48;100500.34;;;10.21;63.77
40730;BME280;26418;50.070;8.436;2023-05-24T02:45:13;100492.34;;;10.11;64.06
40730;BME280;26418;50.070;8.436;2023-05-24T02:47:39;100511.22;;;10.16;64.00
40730;BME280;26418;50.070;8.436;2023-05-24T02:50:05;100506.09;;;10.14;64.46
40730;BME280;26418;50.070;8.436;2023-05-24T02:52:31;100506.66;;;10.11;64.92
40730;BME280;26418;50.070;8.436;2023-05-24T02:54:57;100500.81;;;9.99;62.88
40730;BME280;26418;50.070;8.436;2023-05-24T02:57:22;100512.09;;;10.06;63.76
40730;BME280;26418;50.070;8.436;2023-05-24T02:59:48;100516.69;;;10.05;63.81
40730;BME280;26418;50.070;8.436;2023-05-24T03:02:19;100519.63;;;10.09;63.44
40730;BME280;26418;50.070;8.436;2023-05-24T03:04:46;100519.91;;;10.07;63.70
40730;BME280;26418;50.070;8.436;2023-05-24T03:07:12;100515.59;;;10.06;63.30
40730;BME280;26418;50.070;8.436;2023-05-24T03:09:38;100512.84;;;10.12;62.88
40730;BME280;26418;50.070;8.436;2023-05-24T03:12:04;100514.19;;;10.14;62.64
40730;BME280;26418;50.070;8.436;2023-05-24T03:14:30;100496.69;;;10.06;62.47
40730;BME280;26418;50.070;8.436;2023-05-24T03:17:01;100512.84;;;10.12;62.04
40730;BME280;26418;50.070;8.436;2023-05-24T03:19:27;100500.94;;;10.13;60.93
40730;BME280;26418;50.070;8.436;2023-05-24T03:21:53;100504.00;;;10.06;61.37
40730;BME280;26418;50.070;8.436;2023-05-24T03:24:21;100509.47;;;9.96;61.55
40730;BME280;26418;50.070;8.436;2023-05-24T03:26:47;100510.25;;;9.96;61.35
40730;BME280;26418;50.070;8.436;2023-05-24T03:29:12;100509.22;;;9.92;61.44
40730;BME280;26418;50.070;8.436;2023-05-24T03:31:50;100507.91;;;9.84;61.47
40730;BME280;26418;50.070;8.436;2023-05-24T03:34:15;100501.75;;;9.79;61.23
40730;BME280;26418;50.070;8.436;2023-05-24T03:36:44;100509.59;;;9.80;61.43
40730;BME280;26418;50.070;8.436;2023-05-24T03:39:09;100507.91;;;9.84;61.44
40730;BME280;26418;50.070;8.436;2023-05-24T03:41:35;100514.75;;;9.77;61.56
40730;BME280;26418;50.070;8.436;2023-05-24T03:44:19;100518.47;;;9.81;61.93
40730;BME280;26418;50.070;8.436;2023-05-24T03:46:53;100511.56;;;9.69;62.19
40730;BME280;26418;50.070;8.436;2023-05-24T03:49:19;100522.38;;;9.64;62.98
40730;BME280;26418;50.070;8.436;2023-05-24T03:51:54;100521.31;;;9.60;63.69
40730;BME280;26418;50.070;8.436;2023-05-24T03:54:22;100525.13;;;9.54;64.52
40730;BME280;26418;50.070;8.436;2023-05-24T03:56:57;100527.56;;;9.50;64.81
40730;BME280;26418;50.070;8.436;2023-05-24T03:59:23;100544.84;;;9.49;65.12
40730;BME280;26418;50.070;8.436;2023-05-24T04:02:07;100534.34;;;9.48;64.88
40730;BME280;26418;50.070;8.436;2023-05-24T04:07:54;100499.53;;;9.41;63.94
40730;BME280;26418;50.070;8.436;2023-05-24T04:10:20;100524.22;;;9.69;63.30
40730;BME280;26418;50.070;8.436;2023-05-24T04:12:46;100524.53;;;9.67;62.47
40730;BME280;26418;50.070;8.436;2023-05-24T04:15:27;100519.41;;;9.60;62.98
40730;BME280;26418;50.070;8.436;2023-05-24T04:17:55;100531.88;;;9.56;63.60
40730;BME280;26418;50.070;8.436;2023-05-24T04:20:36;100529.47;;;9.50;63.87
40730;BME280;26418;50.070;8.436;2023-05-24T04:23:27;100540.56;;;9.48;64.40
40730;BME280;26418;50.070;8.436;2023-05-24T04:25:59;100536.50;;;9.51;64.38
40730;BME280;26418;50.070;8.436;2023-05-24T04:28:43;100539.97;;;9.56;64.46
40730;BME280;26418;50.070;8.436;2023-05-24T04:31:31;100542.94;;;9.60;64.57
40730;BME280;26418;50.070;8.436;2023-05-24T04:37:23;100547.16;;;9.71;67.47
40730;BME280;26418;50.070;8.436;2023-05-24T04:39:54;100539.06;;;9.71;70.22
40730;BME280;26418;50.070;8.436;2023-05-24T04:42:23;100536.59;;;9.80;74.85
40730;BME280;26418;50.070;8.436;2023-05-24T04:45:14;100557.44;;;10.14;69.43
40730;BME280;26418;50.070;8.436;2023-05-24T04:48:13;100549.66;;;10.07;64.97
40730;BME280;26418;50.070;8.436;2023-05-24T04:57:44;100553.59;;;9.86;67.64
40730;BME280;26418;50.070;8.436;2023-05-24T05:07:24;100550.97;;;10.10;66.21
40730;BME280;26418;50.070;8.436;2023-05-24T05:10:11;100538.78;;;10.13;63.26
40730;BME280;26418;50.070;8.436;2023-05-24T05:12:37;100542.84;;;10.15;64.58
40730;BME280;26418;50.070;8.436;2023-05-24T05:22:03;100552.84;;;10.49;63.18
40730;BME280;26418;50.070;8.436;2023-05-24T05:24:28;100548.81;;;10.47;60.61
40730;BME280;26418;50.070;8.436;2023-05-24T05:27:25;100553.75;;;10.40;60.34
40730;BME280;26418;50.070;8.436;2023-05-24T05:33:12;100558.09;;;10.35;60.39
40730;BME280;26418;50.070;8.436;2023-05-24T05:35:40;100557.47;;;10.49;64.68
40730;BME280;26418;50.070;8.436;2023-05-24T05:38:21;100568.00;;;10.50;58.47
40730;BME280;26418;50.070;8.436;2023-05-24T05:41:18;100581.13;;;10.62;57.89
40730;BME280;26418;50.070;8.436;2023-05-24T05:43:56;100581.19;;;10.57;57.40
40730;BME280;26418;50.070;8.436;2023-05-24T05:46:43;100580.41;;;10.57;57.22
40730;BME280;26418;50.070;8.436;2023-05-24T05:49:22;100580.16;;;10.53;58.43
40730;BME280;26418;50.070;8.436;2023-05-24T05:51:53;100576.03;;;10.61;58.82
40730;BME280;26418;50.070;8.436;2023-05-24T05:54:22;100578.13;;;10.69;58.22
40730;BME280;26418;50.070;8.436;2023-05-24T05:56:47;100575.25;;;10.84;60.39
40730;BME280;26418;50.070;8.436;2023-05-24T05:59:16;100579.19;;;10.97;56.59
40730;BME280;26418;50.070;8.436;2023-05-24T06:02:18;100582.72;;;10.98;55.34
40730;BME280;26418;50.070;8.436;2023-05-24T06:04:45;100577.16;;;10.84;55.40
40730;BME280;26418;50.070;8.436;2023-05-24T06:07:17;100576.72;;;10.72;56.72
40730;BME280;26418;50.070;8.436;2023-05-24T06:09:42;100583.91;;;10.87;56.19
40730;BME280;26418;50.070;8.436;2023-05-24T06:12:08;100560.72;;;10.75;56.37
40730;BME280;26418;50.070;8.436;2023-05-24T06:14:33;100582.34;;;10.80;56.14
40730;BME280;26418;50.070;8.436;2023-05-24T06:17:04;100568.63;;;10.72;57.02
40730;BME280;26418;50.070;8.436;2023-05-24T06:19:29;100587.84;;;10.99;56.78
40730;BME280;26418;50.070;8.436;2023-05-24T06:21:57;100605.88;;;11.09;56.32
40730;BME280;26418;50.070;8.436;2023-05-24T06:24:22;100583.22;;;11.00;57.21
40730;BME280;26418;50.070;8.436;2023-05-24T06:26:50;100601.31;;;11.05;55.95
40730;BME280;26418;50.070;8.436;2023-05-24T06:29:16;100608.56;;;11.09;55.99
40730;BME280;26418;50.070;8.436;2023-05-24T06:31:44;100601.16;;;11.20;56.46
40730;BME280;26418;50.070;8.436;2023-05-24T06:34:12;100603.06;;;11.20;55.17
40730;BME280;26418;50.070;8.436;2023-05-24T06:36:37;100594.88;;;11.00;55.36
40730;BME280;26418;50.070;8.436;2023-05-24T06:39:11;100618.44;;;11.24;56.66
40730;BME280;26418;50.070;8.436;2023-05-24T06:41:37;100606.69;;;11.34;55.18
40730;BME280;26418;50.070;8.436;2023-05-24T06:44:03;100610.50;;;11.33;55.77
40730;BME280;26418;50.070;8.436;2023-05-24T06:46:29;100601.78;;;11.36;55.32
40730;BME280;26418;50.070;8.436;2023-05-24T06:48:55;100597.75;;;11.33;55.90
40730;BME280;26418;50.070;8.436;2023-05-24T06:51:21;100597.00;;;11.28;56.04
40730;BME280;26418;50.070;8.436;2023-05-24T06:53:47;100581.97;;;11.16;55.70
40730;BME280;26418;50.070;8.436;2023-05-24T06:56:12;100595.16;;;11.23;56.62
40730;BME280;26418;50.070;8.436;2023-05-24T06:58:38;100589.47;;;11.25;55.76
40730;BME280;26418;50.070;8.436;2023-05-24T07:01:03;100596.38;;;11.36;56.08
40730;BME280;26418;50.070;8.436;2023-05-24T07:03:31;100600.34;;;11.44;55.72
40730;BME280;26418;50.070;8.436;2023-05-24T07:05:57;100589.34;;;11.35;54.71
40730;BME280;26418;50.070;8.436;2023-05-24T07:08:26;100597.28;;;11.51;54.98
40730;BME280;26418;50.070;8.436;2023-05-24T07:10:55;100592.56;;;11.61;56.45
40730;BME280;26418;50.070;8.436;2023-05-24T07:13:21;100596.69;;;11.78;53.92
40730;BME280;26418;50.070;8.436;2023-05-24T07:15:47;100587.13;;;11.61;52.64
40730;BME280;26418;50.070;8.436;2023-05-24T07:18:13;100599.31;;;11.83;53.97
40730;BME280;26418;50.070;8.436;2023-05-24T07:20:39;100576.34;;;12.00;56.68
40730;BME280;26418;50.070;8.436;2023-05-24T07:23:04;100579.25;;;12.22;53.25
40730;BME280;26418;50.070;8.436;2023-05-24T07:25:31;100593.69;;;12.37;51.43
40730;BME280;26418;50.070;8.436;2023-05-24T07:27:57;100600.75;;;12.52;53.02
40730;BME280;26418;50.070;8.436;2023-05-24T07:30:23;100593.06;;;12.59;53.15
40730;BME280;26418;50.070;8.436;2023-05-24T07:32:48;100604.44;;;12.75;52.19
40730;BME280;26418;50.070;8.436;2023-05-24T07:35:14;100603.88;;;12.78;51.25
40730;BME280;26418;50.070;8.436;2023-05-24T07:37:40;100608.72;;;12.95;52.43
40730;BME280;26418;50.070;8.436;2023-05-24T07:40:07;100618.50;;;13.10;51.70
40730;BME280;26418;50.070;8.436;2023-05-24T07:42:35;100622.03;;;13.25;51.89
40730;BME280;26418;50.070;8.436;2023-05-24T07:45:01;100626.47;;;13.48;49.76
40730;BME280;26418;50.070;8.436;2023-05-24T07:47:27;100629.19;;;13.48;49.30
40730;BME280;26418;50.070;8.436;2023-05-24T07:49:52;100619.22;;;13.58;50.17
40730;BME280;26418;50.070;8.436;2023-05-24T07:52:18;100614.47;;;13.77;49.71
40730;BME280;26418;50.070;8.436;2023-05-24T07:54:44;100615.44;;;13.95;49.67
40730;BME280;26418;50.070;8.436;2023-05-24T07:57:10;100610.56;;;14.06;48.84
40730;BME280;26418;50.070;8.436;2023-05-24T07:59:37;100615.25;;;14.28;49.06
40730;BME280;26418;50.070;8.436;2023-05-24T08:02:02;100610.66;;;14.38;47.72
40730;BME280;26418;50.070;8.436;2023-05-24T08:04:30;100611.47;;;14.61;47.41
40730;BME280;26418;50.070;8.436;2023-05-24T08:06:57;100613.16;;;14.93;47.07
40730;BME280;26418;50.070;8.436;2023-05-24T08:09:23;100601.88;;;15.18;46.28
40730;BME280;26418;50.070;8.436;2023-05-24T08:11:49;100600.19;;;15.48;46.56
40730;BME280;26418;50.070;8.436;2023-05-24T08:14:14;100601.47;;;15.42;45.48
40730;BME280;26418;50.070;8.436;2023-05-24T08:16:40;100602.97;;;15.17;45.35
40730;BME280;26418;50.070;8.436;2023-05-24T08:19:06;100609.50;;;15.07;46.26
40730;BME280;26418;50.070;8.436;2023-05-24T08:21:31;100603.94;;;14.81;46.15
40730;BME280;26418;50.070;8.436;2023-05-24T08:23:58;100614.19;;;14.61;46.64
40730;BME280;26418;50.070;8.436;2023-05-24T08:26:25;100608.59;;;14.35;46.82
40730;BME280;26418;50.070;8.436;2023-05-24T08:28:50;100612.72;;;14.32;47.52
40730;BME280;26418;50.070;8.436;2023-05-24T08:31:16;100619.16;;;14.13;46.60
40730;BME280;26418;50.070;8.436;2023-05-24T08:33:42;100615.25;;;13.92;47.03
40730;BME280;26418;50.070;8.436;2023-05-24T08:36:08;100623.94;;;13.66;47.34
40730;BME280;26418;50.070;8.436;2023-05-24T08:38:34;100622.97;;;13.48;47.96
40730;BME280;26418;50.070;8.436;2023-05-24T08:41:04;100625.47;;;13.44;48.89
40730;BME280;26418;50.070;8.436;2023-05-24T08:43:30;100617.13;;;13.41;48.71
40730;BME280;26418;50.070;8.436;2023-05-24T08:45:56;100631.13;;;13.48;48.85
40730;BME280;26418;50.070;8.436;2023-05-24T08:48:24;100624.97;;;13.56;49.17
40730;BME280;26418;50.070;8.436;2023-05-24T08:50:50;100623.56;;;13.59;49.15
40730;BME280;26418;50.070;8.436;2023-05-24T08:53:17;100622.47;;;13.46;49.16
40730;BME280;26418;50.070;8.436;2023-05-24T08:55:43;100611.59;;;13.46;49.91
40730;BME280;26418;50.070;8.436;2023-05-24T08:58:10;100613.09;;;13.66;49.09
40730;BME280;26418;50.070;8.436;2023-05-24T09:00:35;100600.97;;;13.86;48.48
40730;BME280;26418;50.070;8.436;2023-05-24T09:03:01;100612.16;;;14.21;48.16
40730;BME280;26418;50.070;8.436;2023-05-24T09:05:31;100615.69;;;14.67;47.67
40730;BME280;26418;50.070;8.436;2023-05-24T09:07:59;100611.84;;;14.91;46.36
40730;BME280;26418;50.070;8.436;2023-05-24T09:10:26;100608.91;;;15.10;45.90
40730;BME280;26418;50.070;8.436;2023-05-24T09:12:57;100609.66;;;15.42;45.75
40730;BME280;26418;50.070;8.436;2023-05-24T09:15:23;100609.22;;;15.66;44.76
40730;BME280;26418;50.070;8.436;2023-05-24T09:17:49;100613.00;;;15.88;44.57
40730;BME280;26418;50.070;8.436;2023-05-24T09:20:15;100602.72;;;16.20;42.97
40730;BME280;26418;50.070;8.436;2023-05-24T09:22:41;100607.97;;;16.60;42.92
40730;BME280;26418;50.070;8.436;2023-05-24T09:25:09;100602.47;;;16.95;42.78
40730;BME280;26418;50.070;8.436;2023-05-24T09:27:35;100604.84;;;17.36;42.11
40730;BME280;26418;50.070;8.436;2023-05-24T09:30:02;100613.25;;;17.31;41.58
40730;BME280;26418;50.070;8.436;2023-05-24T09:32:30;100601.28;;;17.44;41.16
40730;BME280;26418;50.070;8.436;2023-05-24T09:34:57;100606.81;;;17.35;40.72
40730;BME280;26418;50.070;8.436;2023-05-24T09:37:24;100603.34;;;17.17;40.50
40730;BME280;26418;50.070;8.436;2023-05-24T09:39:52;100604.31;;;17.12;41.33
40730;BME280;26418;50.070;8.436;2023-05-24T09:42:20;100602.78;;;16.94;41.44
40730;BME280;26418;50.070;8.436;2023-05-24T09:45:01;100617.00;;;16.52;40.61
40730;BME280;26418;50.070;8.436;2023-05-24T09:47:30;100605.88;;;16.66;41.85
40730;BME280;26418;50.070;8.436;2023-05-24T09:49:56;100595.72;;;16.84;42.00
40730;BME280;26418;50.070;8.436;2023-05-24T09:52:21;100588.00;;;16.95;41.68
40730;BME280;26418;50.070;8.436;2023-05-24T09:54:47;100585.91;;;16.83;41.05
40730;BME280;26418;50.070;8.436;2023-05-24T09:57:16;100593.06;;;16.58;40.63
40730;BME280;26418;50.070;8.436;2023-05-24T09:59:42;100575.72;;;16.54;41.23
40730;BME280;26418;50.070;8.436;2023-05-24T10:02:11;100574.53;;;16.81;41.04
40730;BME280;26418;50.070;8.436;2023-05-24T10:04:40;100578.69;;;17.26;39.07
40730;BME280;26418;50.070;8.436;2023-05-24T10:07:07;100566.47;;;17.53;39.10
40730;BME280;26418;50.070;8.436;2023-05-24T10:09:34;100566.91;;;17.85;38.98
40730;BME280;26418;50.070;8.436;2023-05-24T10:12:04;100566.38;;;18.13;38.47
40730;BME280;26418;50.070;8.436;2023-05-24T10:14:31;100571.66;;;18.52;39.33
40730;BME280;26418;50.070;8.436;2023-05-24T10:16:58;100570.06;;;19.34;38.85
40730;BME280;26418;50.070;8.436;2023-05-24T10:19:24;100570.88;;;20.29;37.22
40730;BME280;26418;50.070;8.436;2023-05-24T10:21:50;100565.44;;;21.25;35.37
40730;BME280;26418;50.070;8.436;2023-05-24T10:24:18;100565.38;;;21.92;32.45
40730;BME280;26418;50.070;8.436;2023-05-24T10:26:47;100564.78;;;22.42;32.84
40730;BME280;26418;50.070;8.436;2023-05-24T10:29:40;100574.13;;;22.57;31.84
40730;BME280;26418;50.070;8.436;2023-05-24T10:32:09;100563.03;;;22.53;30.79
40730;BME280;26418;50.070;8.436;2023-05-24T10:34:36;100573.84;;;23.12;31.18
40730;BME280;26418;50.070;8.436;2023-05-24T10:37:03;100559.47;;;23.26;30.54
40730;BME280;26418;50.070;8.436;2023-05-24T10:39:32;100550.50;;;23.60;29.18
40730;BME280;26418;50.070;8.436;2023-05-24T10:42:01;100555.09;;;24.13;29.41
40730;BME280;26418;50.070;8.436;2023-05-24T10:44:28;100556.34;;;24.19;28.93
40730;BME280;26418;50.070;8.436;2023-05-24T10:49:27;100542.84;;;24.93;27.44
40730;BME280;26418;50.070;8.436;2023-05-24T10:52:00;100546.00;;;25.47;27.36
40730;BME280;26418;50.070;8.436;2023-05-24T10:54:26;100540.28;;;25.22;26.26
40730;BME280;26418;50.070;8.436;2023-05-24T10:56:52;100533.84;;;24.58;27.25
40730;BME280;26418;50.070;8.436;2023-05-24T10:59:47;100540.50;;;24.12;27.22
40730;BME280;26418;50.070;8.436;2023-05-24T11:02:12;100538.03;;;23.43;28.27
40730;BME280;26418;50.070;8.436;2023-05-24T11:04:41;100533.88;;;23.02;28.57
40730;BME280;26418;50.070;8.436;2023-05-24T11:07:08;100541.03;;;22.37;29.19
40730;BME280;26418;50.070;8.436;2023-05-24T11:09:35;100546.00;;;21.69;30.07
40730;BME280;26418;50.070;8.436;2023-05-24T11:12:07;100551.50;;;21.17;30.55
40730;BME280;26418;50.070;8.436;2023-05-24T11:14:37;100550.81;;;20.72;31.40
40730;BME280;26418;50.070;8.436;2023-05-24T11:17:06;100552.28;;;20.38;31.85
40730;BME280;26418;50.070;8.436;2023-05-24T11:19:36;100541.66;;;20.08;32.25
40730;BME280;26418;50.070;8.436;2023-05-24T11:22:05;100534.16;;;19.92;32.14
40730;BME280;26418;50.070;8.436;2023-05-24T11:24:32;100538.31;;;19.86;32.44
40730;BME280;26418;50.070;8.436;2023-05-24T11:26:59;100541.22;;;20.06;33.17
40730;BME280;26418;50.070;8.436;2023-05-24T11:29:27;100533.78;;;20.51;32.69
40730;BME280;26418;50.070;8.436;2023-05-24T13:46:40;100513.66;;;16.72;38.72
40730;BME280;26418;50.070;8.436;2023-05-24T13:49:07;100514.53;;;16.46;39.13
40730;BME280;26418;50.070;8.436;2023-05-24T13:51:34;100518.59;;;16.31;38.58
40730;BME280;26418;50.070;8.436;2023-05-24T13:54:00;100513.94;;;16.23;39.43
40730;BME280;26418;50.070;8.436;2023-05-24T13:56:26;100513.63;;;16.24;40.07
40730;BME280;26418;50.070;8.436;2023-05-24T13:59:01;100515.38;;;16.29;40.65
40730;BME280;26418;50.070;8.436;2023-05-24T14:01:27;100505.91;;;16.26;40.32
40730;BME280;26418;50.070;8.436;2023-05-24T14:03:53;100517.47;;;16.41;40.66
40730;BME280;26418;50.070;8.436;2023-05-24T14:06:19;100507.63;;;16.48;40.30
40730;BME280;26418;50.070;8.436;2023-05-24T14:08:46;100510.69;;;16.47;39.41
40730;BME280;26418;50.070;8.436;2023-05-24T14:11:12;100516.44;;;16.45;40.06
40730;BME280;26418;50.070;8.436;2023-05-24T14:13:39;100520.28;;;16.62;39.79
40730;BME280;26418;50.070;8.436;2023-05-24T14:16:06;100512.84;;;16.71;39.89
40730;BME280;26418;50.070;8.436;2023-05-24T14:18:31;100511.03;;;16.84;38.89
40730;BME280;26418;50.070;8.436;2023-05-24T14:20:57;100509.38;;;16.92;37.96
40730;BME280;26418;50.070;8.436;2023-05-24T14:23:22;100512.78;;;16.97;38.01
40730;BME280;26418;50.070;8.436;2023-05-24T14:25:48;100511.94;;;17.06;38.43
40730;BME280;26418;50.070;8.436;2023-05-24T14:28:16;100505.34;;;17.07;37.42
40730;BME280;26418;50.070;8.436;2023-05-24T14:30:42;100504.47;;;17.15;37.76
40730;BME280;26418;50.070;8.436;2023-05-24T14:33:07;100507.88;;;17.12;38.10
40730;BME280;26418;50.070;8.436;2023-05-24T14:35:35;100490.53;;;17.08;37.80
40730;BME280;26418;50.070;8.436;2023-05-24T14:38:07;100506.81;;;17.25;37.59
40730;BME280;26418;50.070;8.436;2023-05-24T14:40:33;100496.97;;;17.33;38.48
40730;BME280;26418;50.070;8.436;2023-05-24T14:43:02;100501.31;;;17.55;37.92
40730;BME280;26418;50.070;8.436;2023-05-24T14:45:27;100504.50;;;17.36;37.82
40730;BME280;26418;50.070;8.436;2023-05-24T14:47:53;100499.09;;;17.27;37.92
40730;BME280;26418;50.070;8.436;2023-05-24T14:50:18;100500.03;;;17.32;38.11
40730;BME280;26418;50.070;8.436;2023-05-24T14:52:44;100485.50;;;17.40;38.29
40730;BME280;26418;50.070;8.436;2023-05-24T14:55:09;100489.63;;;17.67;38.31
40730;BME280;26418;50.070;8.436;2023-05-24T14:57:35;100486.28;;;17.83;38.15
40730;BME280;26418;50.070;8.436;2023-05-24T15:00:01;100491.41;;;18.05;38.03
40730;BME280;26418;50.070;8.436;2023-05-24T15:02:27;100486.91;;;18.22;37.44
40730;BME280;26418;50.070;8.436;2023-05-24T15:04:53;100483.13;;;18.14;36.85
40730;BME280;26418;50.070;8.436;2023-05-24T15:07:18;100487.16;;;18.29;37.14
40730;BME280;26418;50.070;8.436;2023-05-24T15:09:44;100484.88;;;18.31;37.03
40730;BME280;26418;50.070;8.436;2023-05-24T15:12:10;100483.53;;;18.37;36.15
40730;BME280;26418;50.070;8.436;2023-05-24T15:14:35;100483.16;;;18.27;35.63
40730;BME280;26418;50.070;8.436;2023-05-24T15:17:01;100489.91;;;18.42;36.36
40730;BME280;26418;50.070;8.436;2023-05-24T15:19:26;100478.88;;;18.50;35.41
40730;BME280;26418;50.070;8.436;2023-05-24T15:21:52;100481.94;;;18.74;35.38
40730;BME280;26418;50.070;8.436;2023-05-24T15:24:17;100472.50;;;18.96;35.19
40730;BME280;26418;50.070;8.436;2023-05-24T15:26:43;100478.22;;;19.15;35.09
40730;BME280;26418;50.070;8.436;2023-05-24T15:29:08;100481.16;;;19.23;32.85
40730;BME280;26418;50.070;8.436;2023-05-24T15:31:34;100473.19;;;19.17;32.66
40730;BME280;26418;50.070;8.436;2023-05-24T15:34:00;100472.00;;;19.19;32.70
40730;BME280;26418;50.070;8.436;2023-05-24T15:36:26;100468.59;;;19.22;32.16
40730;BME280;26418;50.070;8.436;2023-05-24T15:38:51;100468.81;;;19.29;31.96
40730;BME280;26418;50.070;8.436;2023-05-24T15:41:17;100469.47;;;19.38;32.47
40730;BME280;26418;50.070;8.436;2023-05-24T15:43:43;100465.56;;;19.52;32.78
40730;BME280;26418;50.070;8.436;2023-05-24T15:46:09;100451.34;;;19.62;32.75
40730;BME280;26418;50.070;8.436;2023-05-24T15:48:34;100468.00;;;19.69;32.17
40730;BME280;26418;50.070;8.436;2023-05-24T15:51:00;100465.72;;;19.71;32.21
40730;BME280;26418;50.070;8.436;2023-05-24T15:53:25;100458.53;;;19.67;32.32
40730;BME280;26418;50.070;8.436;2023-05-24T15:55:51;100462.09;;;19.55;32.15
40730;BME280;26418;50.070;8.436;2023-05-24T15:58:16;100459.84;;;19.44;32.07
40730;BME280;26418;50.070;8.436;2023-05-24T16:00:42;100457.63;;;19.22;32.31
40730;BME280;26418;50.070;8.436;2023-05-24T16:03:08;100460.06;;;19.11;32.67
40730;BME280;26418;50.070;8.436;2023-05-24T16:05:33;100464.41;;;19.12;32.98
40730;BME280;26418;50.070;8.436;2023-05-24T16:07:59;100464.16;;;19.17;32.92
40730;BME280;26418;50.070;8.436;2023-05-24T16:10:26;100461.88;;;19.07;32.27
40730;BME280;26418;50.070;8.436;2023-05-24T16:12:52;100458.69;;;18.92;33.33